sensor_id;sensor_type;location;lat;lon;timestamp;pressure;altitude;pressure_sealevel;temperature;humidity
39141;BME280;24875;48.436;10.298;2023-05-07T00:02:22;96193.91;;;13.25;100.00
39141;BME280;24875;48.436;10.298;2023-05-07T00:04:48;96181.63;;;13.11;100.00
39141;BME280;24875;48.436;10.298;2023-05-07T00:07:15;96186.50;;;13.14;100.00
39141;BME280;24875;48.436;10.298;2023-05-07T00:09:41;96185.94;;;13.19;100.00
39141;BME280;24875;48.436;10.298;2023-05-07T00:12:08;96183.97;;;13.34;100.00
39141;BME280;24875;48.436;10.298;2023-05-07T00:14:35;96187.78;;;13.25;100.00
39141;BME280;24875;48.436;10.298;2023-05-07T00:17:02;96195.34;;;13.28;100.00
39141;BME280;24875;48.436;10.298;2023-05-07T00:19:29;96201.25;;;13.30;100.00
39141;BME280;24875;48.436;10.298;2023-05-07T00:21:55;96189.03;;;13.29;100.00
39141;BME280;24875;48.436;10.298;2023-05-07T00:24:23;96200.66;;;13.28;100.00
39141;BME280;24875;48.436;10.298;2023-05-07T00:26:50;96195.13;;;13.23;100.00
39141;BME280;24875;48.436;10.298;2023-05-07T00:29:17;96196.13;;;12.94;100.00
39141;BME280;24875;48.436;10.298;2023-05-07T00:31:44;96195.19;;;12.81;100.00
39141;BME280;24875;48.436;10.298;2023-05-07T00:34:12;96192.56;;;13.08;100.00
39141;BME280;24875;48.436;10.298;2023-05-07T00:36:38;96196.13;;;13.22;100.00
39141;BME280;24875;48.436;10.298;2023-05-07T00:39:05;96199.81;;;13.27;100.00
39141;BME280;24875;48.436;10.298;2023-05-07T00:41:32;96182.94;;;13.28;100.00
39141;BME280;24875;48.436;10.298;2023-05-07T00:43:58;96185.44;;;13.42;100.00
39141;BME280;24875;48.436;10.298;2023-05-07T00:46:28;96183.88;;;13.48;100.00
39141;BME280;24875;48.436;10.298;2023-05-07T00:48:55;96175.31;;;13.52;100.00
39141;BME280;24875;48.436;10.298;2023-05-07T00:51:23;96175.84;;;13.35;100.00
39141;BME280;24875;48.436;10.298;2023-05-07T00:53:52;96175.75;;;12.88;100.00
39141;BME280;24875;48.436;10.298;2023-05-07T00:56:20;96172.75;;;12.98;100.00
39141;BME280;24875;48.436;10.298;2023-05-07T00:58:46;96175.13;;;12.66;100.00
39141;BME280;24875;48.436;10.298;2023-05-07T01:01:13;96178.06;;;12.77;100.00
39141;BME280;24875;48.436;10.298;2023-05-07T01:03:41;96168.47;;;12.97;100.00
39141;BME280;24875;48.436;10.298;2023-05-07T01:06:08;96169.78;;;13.07;100.00
39141;BME280;24875;48.436;10.298;2023-05-07T01:08:39;96169.59;;;13.09;100.00
39141;BME280;24875;48.436;10.298;2023-05-07T01:11:06;96169.78;;;13.07;100.00
39141;BME280;24875;48.436;10.298;2023-05-07T01:13:33;96165.25;;;13.01;100.00
39141;BME280;24875;48.436;10.298;2023-05-07T01:16:00;96167.72;;;13.03;100.00
39141;BME280;24875;48.436;10.298;2023-05-07T01:18:27;96166.00;;;13.23;100.00
39141;BME280;24875;48.436;10.298;2023-05-07T01:20:55;96163.44;;;13.36;100.00
39141;BME280;24875;48.436;10.298;2023-05-07T01:23:27;96174.31;;;13.20;100.00
39141;BME280;24875;48.436;10.298;2023-05-07T01:25:54;96173.75;;;12.97;100.00
39141;BME280;24875;48.436;10.298;2023-05-07T01:28:21;96178.38;;;13.16;100.00
39141;BME280;24875;48.436;10.298;2023-05-07T01:30:51;96177.59;;;13.22;100.00
39141;BME280;24875;48.436;10.298;2023-05-07T01:33:20;96170.22;;;13.17;100.00
39141;BME280;24875;48.436;10.298;2023-05-07T01:35:48;96173.16;;;12.95;100.00
39141;BME280;24875;48.436;10.298;2023-05-07T01:38:16;96173.88;;;13.10;100.00
39141;BME280;24875;48.436;10.298;2023-05-07T01:40:43;96170.72;;;13.27;100.00
39141;BME280;24875;48.436;10.298;2023-05-07T01:43:10;96164.19;;;13.23;100.00
39141;BME280;24875;48.436;10.298;2023-05-07T01:45:37;96164.97;;;13.24;100.00
39141;BME280;24875;48.436;10.298;2023-05-07T01:48:06;96155.84;;;13.26;100.00
39141;BME280;24875;48.436;10.298;2023-05-07T01:50:33;96159.09;;;13.22;100.00
39141;BME280;24875;48.436;10.298;2023-05-07T01:53:01;96154.75;;;13.14;100.00
39141;BME280;24875;48.436;10.298;2023-05-07T01:55:28;96156.91;;;12.77;100.00
39141;BME280;24875;48.436;10.298;2023-05-07T01:57:55;96155.91;;;12.78;100.00
39141;BME280;24875;48.436;10.298;2023-05-07T02:00:22;96157.78;;;12.84;100.00
39141;BME280;24875;48.436;10.298;2023-05-07T02:02:49;96159.41;;;12.85;100.00
39141;BME280;24875;48.436;10.298;2023-05-07T02:05:16;96157.69;;;12.92;100.00
39141;BME280;24875;48.436;10.298;2023-05-07T02:07:43;96159.34;;;12.99;100.00
39141;BME280;24875;48.436;10.298;2023-05-07T02:10:10;96157.13;;;13.03;100.00
39141;BME280;24875;48.436;10.298;2023-05-07T02:12:36;96161.22;;;13.05;100.00
39141;BME280;24875;48.436;10.298;2023-05-07T02:15:05;96156.66;;;12.93;100.00
39141;BME280;24875;48.436;10.298;2023-05-07T02:17:31;96163.66;;;12.79;100.00
39141;BME280;24875;48.436;10.298;2023-05-07T02:19:58;96165.16;;;12.68;100.00
39141;BME280;24875;48.436;10.298;2023-05-07T02:22:25;96161.06;;;12.65;100.00
39141;BME280;24875;48.436;10.298;2023-05-07T02:24:51;96159.56;;;12.56;100.00
39141;BME280;24875;48.436;10.298;2023-05-07T02:27:17;96153.09;;;12.59;100.00
39141;BME280;24875;48.436;10.298;2023-05-07T02:29:44;96148.09;;;12.70;100.00
39141;BME280;24875;48.436;10.298;2023-05-07T02:32:12;96152.88;;;12.81;100.00
39141;BME280;24875;48.436;10.298;2023-05-07T02:34:38;96153.38;;;12.70;100.00
39141;BME280;24875;48.436;10.298;2023-05-07T02:37:05;96155.28;;;12.76;100.00
39141;BME280;24875;48.436;10.298;2023-05-07T02:39:31;96151.19;;;12.74;100.00
39141;BME280;24875;48.436;10.298;2023-05-07T02:41:57;96147.94;;;12.72;100.00
39141;BME280;24875;48.436;10.298;2023-05-07T02:44:24;96153.28;;;12.78;100.00
39141;BME280;24875;48.436;10.298;2023-05-07T02:46:50;96150.50;;;12.86;100.00
39141;BME280;24875;48.436;10.298;2023-05-07T02:49:18;96161.56;;;12.75;100.00
39141;BME280;24875;48.436;10.298;2023-05-07T02:51:44;96160.13;;;12.73;100.00
39141;BME280;24875;48.436;10.298;2023-05-07T02:54:11;96160.13;;;12.73;100.00
39141;BME280;24875;48.436;10.298;2023-05-07T02:56:37;96159.81;;;12.61;100.00
39141;BME280;24875;48.436;10.298;2023-05-07T02:59:04;96164.41;;;12.46;100.00
39141;BME280;24875;48.436;10.298;2023-05-07T03:01:30;96165.41;;;12.45;100.00
39141;BME280;24875;48.436;10.298;2023-05-07T03:03:57;96163.88;;;12.36;100.00
39141;BME280;24875;48.436;10.298;2023-05-07T03:06:24;96156.47;;;12.25;100.00
39141;BME280;24875;48.436;10.298;2023-05-07T03:08:51;96164.75;;;12.43;100.00
39141;BME280;24875;48.436;10.298;2023-05-07T03:11:17;96165.00;;;12.48;100.00
39141;BME280;24875;48.436;10.298;2023-05-07T03:13:44;96169.28;;;12.49;100.00
39141;BME280;24875;48.436;10.298;2023-05-07T03:16:11;96165.25;;;12.53;100.00
39141;BME280;24875;48.436;10.298;2023-05-07T03:18:37;96167.44;;;12.50;100.00
39141;BME280;24875;48.436;10.298;2023-05-07T03:21:04;96172.56;;;12.51;100.00
39141;BME280;24875;48.436;10.298;2023-05-07T03:23:32;96167.75;;;12.61;100.00
39141;BME280;24875;48.436;10.298;2023-05-07T03:25:58;96166.53;;;12.36;100.00
39141;BME280;24875;48.436;10.298;2023-05-07T03:28:24;96167.84;;;12.26;100.00
39141;BME280;24875;48.436;10.298;2023-05-07T03:30:51;96169.72;;;12.11;100.00
39141;BME280;24875;48.436;10.298;2023-05-07T03:33:17;96169.84;;;12.24;100.00
39141;BME280;24875;48.436;10.298;2023-05-07T03:35:44;96171.63;;;12.38;100.00
39141;BME280;24875;48.436;10.298;2023-05-07T03:38:10;96177.72;;;11.97;100.00
39141;BME280;24875;48.436;10.298;2023-05-07T03:40:38;96181.09;;;12.12;100.00
39141;BME280;24875;48.436;10.298;2023-05-07T03:43:05;96180.75;;;12.15;100.00
39141;BME280;24875;48.436;10.298;2023-05-07T03:45:31;96187.91;;;12.20;100.00
39141;BME280;24875;48.436;10.298;2023-05-07T03:47:58;96196.72;;;12.27;100.00
39141;BME280;24875;48.436;10.298;2023-05-07T03:50:24;96189.41;;;12.29;100.00
39141;BME280;24875;48.436;10.298;2023-05-07T03:52:51;96193.44;;;12.25;100.00
39141;BME280;24875;48.436;10.298;2023-05-07T03:55:17;96183.00;;;11.97;100.00
39141;BME280;24875;48.436;10.298;2023-05-07T03:57:45;96191.78;;;12.04;100.00
39141;BME280;24875;48.436;10.298;2023-05-07T04:00:13;96182.63;;;12.00;100.00
39141;BME280;24875;48.436;10.298;2023-05-07T04:02:39;96188.47;;;11.95;100.00
39141;BME280;24875;48.436;10.298;2023-05-07T04:05:06;96187.03;;;11.93;100.00
39141;BME280;24875;48.436;10.298;2023-05-07T04:07:33;96183.72;;;11.91;100.00
39141;BME280;24875;48.436;10.298;2023-05-07T04:09:59;96179.72;;;11.95;100.00
39141;BME280;24875;48.436;10.298;2023-05-07T04:12:25;96180.03;;;11.85;100.00
39141;BME280;24875;48.436;10.298;2023-05-07T04:14:53;96175.44;;;11.94;100.00
39141;BME280;24875;48.436;10.298;2023-05-07T04:17:20;96172.13;;;11.71;100.00
39141;BME280;24875;48.436;10.298;2023-05-07T04:19:46;96177.50;;;11.77;100.00
39141;BME280;24875;48.436;10.298;2023-05-07T04:22:13;96169.75;;;11.76;100.00
39141;BME280;24875;48.436;10.298;2023-05-07T04:24:39;96169.28;;;11.87;100.00
39141;BME280;24875;48.436;10.298;2023-05-07T04:27:05;96176.00;;;11.89;100.00
39141;BME280;24875;48.436;10.298;2023-05-07T04:29:32;96170.78;;;11.96;100.00
39141;BME280;24875;48.436;10.298;2023-05-07T04:32:00;96179.91;;;12.14;100.00
39141;BME280;24875;48.436;10.298;2023-05-07T04:34:26;96187.69;;;12.16;100.00
39141;BME280;24875;48.436;10.298;2023-05-07T04:36:53;96190.19;;;12.23;100.00
39141;BME280;24875;48.436;10.298;2023-05-07T04:39:19;96189.41;;;12.09;100.00
39141;BME280;24875;48.436;10.298;2023-05-07T04:41:46;96191.25;;;12.29;100.00
39141;BME280;24875;48.436;10.298;2023-05-07T04:44:12;96187.66;;;12.36;100.00
39141;BME280;24875;48.436;10.298;2023-05-07T04:46:38;96180.28;;;12.32;100.00
39141;BME280;24875;48.436;10.298;2023-05-07T04:49:06;96180.63;;;12.22;100.00
39141;BME280;24875;48.436;10.298;2023-05-07T04:51:33;96178.31;;;12.13;100.00
39141;BME280;24875;48.436;10.298;2023-05-07T04:53:59;96177.97;;;12.22;100.00
39141;BME280;24875;48.436;10.298;2023-05-07T04:56:27;96170.19;;;12.35;100.00
39141;BME280;24875;48.436;10.298;2023-05-07T04:58:54;96174.22;;;12.31;100.00
39141;BME280;24875;48.436;10.298;2023-05-07T05:01:20;96182.53;;;12.28;100.00
39141;BME280;24875;48.436;10.298;2023-05-07T05:03:46;96179.75;;;12.36;100.00
39141;BME280;24875;48.436;10.298;2023-05-07T05:06:14;96192.56;;;12.60;100.00
39141;BME280;24875;48.436;10.298;2023-05-07T05:08:41;96192.25;;;12.70;100.00
39141;BME280;24875;48.436;10.298;2023-05-07T05:11:07;96196.19;;;12.80;100.00
39141;BME280;24875;48.436;10.298;2023-05-07T05:13:33;96196.28;;;12.86;100.00
39141;BME280;24875;48.436;10.298;2023-05-07T05:16:00;96190.28;;;12.78;100.00
39141;BME280;24875;48.436;10.298;2023-05-07T05:18:26;96188.44;;;12.99;100.00
39141;BME280;24875;48.436;10.298;2023-05-07T05:20:53;96194.16;;;13.03;100.00
39141;BME280;24875;48.436;10.298;2023-05-07T05:23:21;96198.78;;;13.22;100.00
39141;BME280;24875;48.436;10.298;2023-05-07T05:25:47;96202.59;;;13.13;100.00
39141;BME280;24875;48.436;10.298;2023-05-07T05:28:13;96203.31;;;13.28;100.00
39141;BME280;24875;48.436;10.298;2023-05-07T05:30:40;96207.47;;;13.43;100.00
39141;BME280;24875;48.436;10.298;2023-05-07T05:33:06;96204.72;;;13.64;100.00
39141;BME280;24875;48.436;10.298;2023-05-07T05:35:33;96205.94;;;13.68;100.00
39141;BME280;24875;48.436;10.298;2023-05-07T05:38:00;96200.75;;;13.87;100.00
39141;BME280;24875;48.436;10.298;2023-05-07T05:40:28;96200.66;;;14.08;100.00
39141;BME280;24875;48.436;10.298;2023-05-07T05:42:54;96199.00;;;14.07;100.00
39141;BME280;24875;48.436;10.298;2023-05-07T05:45:21;96215.59;;;14.22;100.00
39141;BME280;24875;48.436;10.298;2023-05-07T05:47:47;96206.22;;;14.32;100.00
39141;BME280;24875;48.436;10.298;2023-05-07T05:50:14;96212.94;;;14.22;100.00
39141;BME280;24875;48.436;10.298;2023-05-07T05:52:40;96207.69;;;14.41;100.00
39141;BME280;24875;48.436;10.298;2023-05-07T05:55:08;96217.69;;;14.59;100.00
39141;BME280;24875;48.436;10.298;2023-05-07T05:57:36;96216.88;;;14.64;100.00
39141;BME280;24875;48.436;10.298;2023-05-07T06:00:02;96216.09;;;14.70;100.00
39141;BME280;24875;48.436;10.298;2023-05-07T06:02:30;96212.81;;;14.81;100.00
39141;BME280;24875;48.436;10.298;2023-05-07T06:04:56;96216.94;;;15.03;100.00
39141;BME280;24875;48.436;10.298;2023-05-07T06:07:23;96223.03;;;15.10;100.00
39141;BME280;24875;48.436;10.298;2023-05-07T06:09:49;96218.13;;;15.20;100.00
39141;BME280;24875;48.436;10.298;2023-05-07T06:12:15;96219.38;;;15.30;100.00
39141;BME280;24875;48.436;10.298;2023-05-07T06:14:44;96220.56;;;15.54;100.00
39141;BME280;24875;48.436;10.298;2023-05-07T06:17:10;96214.41;;;15.60;100.00
39141;BME280;24875;48.436;10.298;2023-05-07T06:19:36;96212.56;;;15.67;100.00
39141;BME280;24875;48.436;10.298;2023-05-07T06:22:03;96212.38;;;15.68;100.00
39141;BME280;24875;48.436;10.298;2023-05-07T06:24:29;96212.34;;;15.75;100.00
39141;BME280;24875;48.436;10.298;2023-05-07T06:26:56;96217.63;;;15.81;100.00
39141;BME280;24875;48.436;10.298;2023-05-07T06:29:23;96211.44;;;15.93;100.00
39141;BME280;24875;48.436;10.298;2023-05-07T06:31:52;96226.50;;;16.12;100.00
39141;BME280;24875;48.436;10.298;2023-05-07T06:34:18;96221.97;;;16.19;99.48
39141;BME280;24875;48.436;10.298;2023-05-07T06:36:45;96225.22;;;16.21;100.00
39141;BME280;24875;48.436;10.298;2023-05-07T06:39:11;96226.88;;;16.22;98.87
39141;BME280;24875;48.436;10.298;2023-05-07T06:41:38;96234.97;;;16.47;99.87
39141;BME280;24875;48.436;10.298;2023-05-07T06:44:04;96233.13;;;16.41;100.00
39141;BME280;24875;48.436;10.298;2023-05-07T06:46:31;96229.78;;;16.14;100.00
39141;BME280;24875;48.436;10.298;2023-05-07T06:48:58;96232.78;;;16.37;100.00
39141;BME280;24875;48.436;10.298;2023-05-07T06:51:25;96241.06;;;16.53;99.31
39141;BME280;24875;48.436;10.298;2023-05-07T06:53:52;96232.44;;;16.58;100.00
39141;BME280;24875;48.436;10.298;2023-05-07T06:56:18;96233.69;;;16.55;100.00
39141;BME280;24875;48.436;10.298;2023-05-07T06:58:45;96236.03;;;16.76;100.00
39141;BME280;24875;48.436;10.298;2023-05-07T07:01:11;96242.63;;;16.61;100.00
39141;BME280;24875;48.436;10.298;2023-05-07T07:03:37;96236.81;;;16.77;100.00
39141;BME280;24875;48.436;10.298;2023-05-07T07:06:05;96237.13;;;16.93;100.00
39141;BME280;24875;48.436;10.298;2023-05-07T07:08:32;96229.84;;;17.07;99.62
39141;BME280;24875;48.436;10.298;2023-05-07T07:10:59;96230.84;;;17.12;98.23
39141;BME280;24875;48.436;10.298;2023-05-07T07:13:26;96231.97;;;17.22;97.11
39141;BME280;24875;48.436;10.298;2023-05-07T07:15:52;96227.03;;;17.26;98.18
39141;BME280;24875;48.436;10.298;2023-05-07T07:18:19;96230.19;;;17.41;97.51
39141;BME280;24875;48.436;10.298;2023-05-07T07:20:45;96233.41;;;17.49;96.59
39141;BME280;24875;48.436;10.298;2023-05-07T07:23:13;96219.50;;;17.65;97.23
39141;BME280;24875;48.436;10.298;2023-05-07T07:25:40;96221.91;;;17.91;98.51
39141;BME280;24875;48.436;10.298;2023-05-07T07:28:06;96226.63;;;17.71;96.47
39141;BME280;24875;48.436;10.298;2023-05-07T07:30:33;96232.25;;;17.81;95.16
39141;BME280;24875;48.436;10.298;2023-05-07T07:32:59;96231.94;;;17.71;94.16
39141;BME280;24875;48.436;10.298;2023-05-07T07:35:27;96224.25;;;17.99;94.24
39141;BME280;24875;48.436;10.298;2023-05-07T07:37:54;96226.31;;;18.15;91.33
39141;BME280;24875;48.436;10.298;2023-05-07T07:40:21;96229.25;;;18.60;91.62
39141;BME280;24875;48.436;10.298;2023-05-07T07:42:48;96235.63;;;18.59;90.22
39141;BME280;24875;48.436;10.298;2023-05-07T07:45:14;96234.31;;;18.50;91.30
39141;BME280;24875;48.436;10.298;2023-05-07T07:47:41;96239.47;;;18.63;92.57
39141;BME280;24875;48.436;10.298;2023-05-07T07:50:08;96233.41;;;18.86;94.84
39141;BME280;24875;48.436;10.298;2023-05-07T07:52:35;96231.75;;;19.14;96.74
39141;BME280;24875;48.436;10.298;2023-05-07T07:55:02;96235.34;;;19.19;95.31
39141;BME280;24875;48.436;10.298;2023-05-07T07:57:30;96231.91;;;19.42;90.49
39141;BME280;24875;48.436;10.298;2023-05-07T07:59:56;96230.28;;;19.41;86.17
39141;BME280;24875;48.436;10.298;2023-05-07T08:02:22;96234.72;;;19.47;87.21
39141;BME280;24875;48.436;10.298;2023-05-07T08:04:49;96232.03;;;19.47;90.54
39141;BME280;24875;48.436;10.298;2023-05-07T08:07:15;96221.81;;;19.44;88.81
39141;BME280;24875;48.436;10.298;2023-05-07T08:09:43;96229.47;;;19.52;90.53
39141;BME280;24875;48.436;10.298;2023-05-07T08:12:10;96226.94;;;19.57;87.12
39141;BME280;24875;48.436;10.298;2023-05-07T08:14:38;96218.56;;;19.99;89.32
39141;BME280;24875;48.436;10.298;2023-05-07T08:17:04;96224.41;;;20.23;91.26
39141;BME280;24875;48.436;10.298;2023-05-07T08:19:31;96230.38;;;20.14;86.46
39141;BME280;24875;48.436;10.298;2023-05-07T08:21:57;96226.19;;;20.18;82.40
39141;BME280;24875;48.436;10.298;2023-05-07T08:24:24;96228.25;;;20.27;89.63
39141;BME280;24875;48.436;10.298;2023-05-07T08:26:50;96229.56;;;20.53;84.52
39141;BME280;24875;48.436;10.298;2023-05-07T08:29:16;96223.75;;;20.56;85.46
39141;BME280;24875;48.436;10.298;2023-05-07T08:31:44;96231.25;;;20.70;87.22
39141;BME280;24875;48.436;10.298;2023-05-07T08:34:10;96232.69;;;20.61;84.24
39141;BME280;24875;48.436;10.298;2023-05-07T08:36:37;96227.00;;;20.58;81.76
39141;BME280;24875;48.436;10.298;2023-05-07T08:39:03;96229.50;;;20.36;82.41
39141;BME280;24875;48.436;10.298;2023-05-07T08:41:30;96236.66;;;20.59;85.48
39141;BME280;24875;48.436;10.298;2023-05-07T08:43:58;96224.00;;;20.43;85.30
39141;BME280;24875;48.436;10.298;2023-05-07T08:46:25;96228.47;;;20.65;84.74
39141;BME280;24875;48.436;10.298;2023-05-07T08:48:53;96231.16;;;20.77;80.48
39141;BME280;24875;48.436;10.298;2023-05-07T08:51:21;96221.81;;;20.79;81.35
39141;BME280;24875;48.436;10.298;2023-05-07T08:53:48;96227.44;;;20.66;83.24
39141;BME280;24875;48.436;10.298;2023-05-07T08:56:15;96222.25;;;20.87;86.04
39141;BME280;24875;48.436;10.298;2023-05-07T08:58:42;96227.94;;;21.07;79.45
39141;BME280;24875;48.436;10.298;2023-05-07T09:01:12;96223.56;;;21.18;81.55
39141;BME280;24875;48.436;10.298;2023-05-07T09:03:39;96225.25;;;20.91;82.80
39141;BME280;24875;48.436;10.298;2023-05-07T09:06:07;96225.31;;;21.40;82.54
39141;BME280;24875;48.436;10.298;2023-05-07T09:08:34;96229.41;;;20.98;82.50
39141;BME280;24875;48.436;10.298;2023-05-07T09:11:01;96220.41;;;21.04;81.92
39141;BME280;24875;48.436;10.298;2023-05-07T09:13:28;96222.13;;;21.27;79.96
39141;BME280;24875;48.436;10.298;2023-05-07T09:15:55;96218.31;;;21.39;83.19
39141;BME280;24875;48.436;10.298;2023-05-07T09:18:23;96220.03;;;21.45;79.31
39141;BME280;24875;48.436;10.298;2023-05-07T09:20:50;96211.91;;;21.56;84.48
39141;BME280;24875;48.436;10.298;2023-05-07T09:23:18;96221.16;;;21.82;77.72
39141;BME280;24875;48.436;10.298;2023-05-07T09:25:44;96219.03;;;21.84;76.05
39141;BME280;24875;48.436;10.298;2023-05-07T09:28:11;96212.81;;;22.00;76.48
39141;BME280;24875;48.436;10.298;2023-05-07T09:30:37;96220.59;;;22.17;76.38
39141;BME280;24875;48.436;10.298;2023-05-07T09:33:04;96220.88;;;22.21;76.33
39141;BME280;24875;48.436;10.298;2023-05-07T09:35:30;96223.19;;;22.29;73.56
39141;BME280;24875;48.436;10.298;2023-05-07T09:37:58;96220.00;;;22.15;78.50
39141;BME280;24875;48.436;10.298;2023-05-07T09:40:27;96225.59;;;21.93;77.88
39141;BME280;24875;48.436;10.298;2023-05-07T09:42:54;96233.75;;;21.81;77.58
39141;BME280;24875;48.436;10.298;2023-05-07T09:45:25;96234.72;;;21.75;78.07
39141;BME280;24875;48.436;10.298;2023-05-07T09:47:54;96235.38;;;21.66;76.07
39141;BME280;24875;48.436;10.298;2023-05-07T09:50:22;96227.94;;;21.68;77.55
39141;BME280;24875;48.436;10.298;2023-05-07T09:52:52;96234.31;;;21.83;76.66
39141;BME280;24875;48.436;10.298;2023-05-07T09:55:19;96222.34;;;22.28;73.09
39141;BME280;24875;48.436;10.298;2023-05-07T09:57:49;96217.97;;;22.65;74.22
39141;BME280;24875;48.436;10.298;2023-05-07T10:00:17;96217.50;;;23.21;75.33
39141;BME280;24875;48.436;10.298;2023-05-07T10:02:45;96217.28;;;23.27;77.30
39141;BME280;24875;48.436;10.298;2023-05-07T10:05:14;96218.59;;;22.98;72.17
39141;BME280;24875;48.436;10.298;2023-05-07T10:07:41;96220.81;;;22.80;70.91
39141;BME280;24875;48.436;10.298;2023-05-07T10:10:08;96213.44;;;22.44;77.47
39141;BME280;24875;48.436;10.298;2023-05-07T10:12:35;96214.94;;;22.35;78.79
39141;BME280;24875;48.436;10.298;2023-05-07T10:15:07;96213.38;;;22.87;75.23
39141;BME280;24875;48.436;10.298;2023-05-07T10:17:35;96212.72;;;23.01;76.61
39141;BME280;24875;48.436;10.298;2023-05-07T10:20:02;96208.28;;;23.12;76.11
39141;BME280;24875;48.436;10.298;2023-05-07T10:22:33;96211.09;;;23.27;70.79
39141;BME280;24875;48.436;10.298;2023-05-07T10:25:05;96214.00;;;23.51;73.71
39141;BME280;24875;48.436;10.298;2023-05-07T10:27:33;96211.97;;;23.06;72.11
39141;BME280;24875;48.436;10.298;2023-05-07T10:30:07;96213.94;;;22.89;73.80
39141;BME280;24875;48.436;10.298;2023-05-07T10:32:39;96213.69;;;22.90;73.68
39141;BME280;24875;48.436;10.298;2023-05-07T10:35:10;96214.81;;;22.73;70.93
39141;BME280;24875;48.436;10.298;2023-05-07T10:37:38;96211.66;;;23.02;71.20
39141;BME280;24875;48.436;10.298;2023-05-07T10:40:06;96214.75;;;23.16;79.76
39141;BME280;24875;48.436;10.298;2023-05-07T10:42:32;96213.19;;;23.20;70.01
39141;BME280;24875;48.436;10.298;2023-05-07T10:45:12;96205.97;;;23.25;75.70
39141;BME280;24875;48.436;10.298;2023-05-07T10:48:08;96211.91;;;23.27;74.15
39141;BME280;24875;48.436;10.298;2023-05-07T10:50:35;96210.91;;;23.07;72.81
39141;BME280;24875;48.436;10.298;2023-05-07T10:53:22;96204.00;;;23.16;74.98
39141;BME280;24875;48.436;10.298;2023-05-07T10:56:24;96201.19;;;23.01;69.93
39141;BME280;24875;48.436;10.298;2023-05-07T10:58:52;96204.53;;;23.18;73.54
39141;BME280;24875;48.436;10.298;2023-05-07T11:01:54;96199.34;;;23.37;71.52
39141;BME280;24875;48.436;10.298;2023-05-07T11:04:21;96200.25;;;23.48;69.52
39141;BME280;24875;48.436;10.298;2023-05-07T11:07:23;96195.03;;;23.68;73.47
39141;BME280;24875;48.436;10.298;2023-05-07T11:09:57;96183.66;;;23.97;67.76
39141;BME280;24875;48.436;10.298;2023-05-07T11:12:48;96193.44;;;24.18;63.96
39141;BME280;24875;48.436;10.298;2023-05-07T11:15:15;96192.16;;;23.79;63.99
39141;BME280;24875;48.436;10.298;2023-05-07T11:18:00;96187.91;;;23.88;61.48
39141;BME280;24875;48.436;10.298;2023-05-07T11:20:47;96177.84;;;24.20;63.29
39141;BME280;24875;48.436;10.298;2023-05-07T11:26:42;96188.72;;;23.89;58.11
39141;BME280;24875;48.436;10.298;2023-05-07T11:29:14;96191.66;;;23.87;58.33
39141;BME280;24875;48.436;10.298;2023-05-07T11:31:41;96179.41;;;24.16;61.36
39141;BME280;24875;48.436;10.298;2023-05-07T11:34:09;96180.56;;;24.30;57.72
39141;BME280;24875;48.436;10.298;2023-05-07T11:36:42;96175.75;;;24.37;61.03
39141;BME280;24875;48.436;10.298;2023-05-07T11:39:30;96166.16;;;24.65;63.18
39141;BME280;24875;48.436;10.298;2023-05-07T11:41:58;96172.09;;;24.57;57.13
39141;BME280;24875;48.436;10.298;2023-05-07T11:44:24;96166.03;;;24.31;58.36
39141;BME280;24875;48.436;10.298;2023-05-07T11:46:51;96166.41;;;24.54;58.47
39141;BME280;24875;48.436;10.298;2023-05-07T11:49:19;96163.72;;;24.54;65.57
39141;BME280;24875;48.436;10.298;2023-05-07T11:51:45;96162.94;;;24.63;61.31
39141;BME280;24875;48.436;10.298;2023-05-07T11:54:15;96164.09;;;25.02;60.41
39141;BME280;24875;48.436;10.298;2023-05-07T11:56:42;96168.59;;;24.57;56.12
39141;BME280;24875;48.436;10.298;2023-05-07T11:59:08;96164.88;;;24.88;53.95
39141;BME280;24875;48.436;10.298;2023-05-07T12:01:35;96166.25;;;24.90;55.03
39141;BME280;24875;48.436;10.298;2023-05-07T12:04:03;96166.47;;;24.74;55.52
39141;BME280;24875;48.436;10.298;2023-05-07T12:06:30;96166.78;;;25.02;53.37
39141;BME280;24875;48.436;10.298;2023-05-07T12:08:57;96162.78;;;25.10;55.26
39141;BME280;24875;48.436;10.298;2023-05-07T12:11:25;96164.41;;;25.20;55.08
39141;BME280;24875;48.436;10.298;2023-05-07T12:13:51;96158.44;;;24.99;54.30
39141;BME280;24875;48.436;10.298;2023-05-07T12:16:19;96160.31;;;25.03;56.64
39141;BME280;24875;48.436;10.298;2023-05-07T12:18:46;96165.69;;;24.88;58.21
39141;BME280;24875;48.436;10.298;2023-05-07T12:21:13;96162.47;;;24.96;53.08
39141;BME280;24875;48.436;10.298;2023-05-07T12:23:43;96164.34;;;24.91;58.72
39141;BME280;24875;48.436;10.298;2023-05-07T12:26:10;96166.56;;;25.14;54.62
39141;BME280;24875;48.436;10.298;2023-05-07T12:28:38;96163.88;;;25.48;52.67
39141;BME280;24875;48.436;10.298;2023-05-07T12:31:04;96160.91;;;25.40;56.96
39141;BME280;24875;48.436;10.298;2023-05-07T12:33:31;96160.78;;;24.60;56.15
39141;BME280;24875;48.436;10.298;2023-05-07T12:35:58;96159.69;;;24.61;54.06
39141;BME280;24875;48.436;10.298;2023-05-07T12:38:34;96151.13;;;24.94;56.98
39141;BME280;24875;48.436;10.298;2023-05-07T12:41:02;96156.59;;;25.19;54.03
39141;BME280;24875;48.436;10.298;2023-05-07T12:43:29;96155.72;;;25.04;56.07
39141;BME280;24875;48.436;10.298;2023-05-07T12:45:57;96152.28;;;25.18;60.35
39141;BME280;24875;48.436;10.298;2023-05-07T12:48:26;96145.22;;;24.87;58.34
39141;BME280;24875;48.436;10.298;2023-05-07T12:50:54;96154.38;;;24.91;53.00
39141;BME280;24875;48.436;10.298;2023-05-07T12:53:22;96149.44;;;24.54;52.42